createdAt,value
2023-05-09T00:00:13.717Z,4.97
2023-05-09T00:02:46.039Z,4.70
2023-05-09T00:05:13.186Z,4.43
2023-05-09T00:07:39.958Z,4.23
2023-05-09T00:10:07.023Z,4.70
2023-05-09T00:12:33.638Z,4.40
2023-05-09T00:15:00.277Z,4.10
2023-05-09T00:17:28.585Z,4.20
2023-05-09T00:19:55.521Z,3.87
2023-05-09T00:22:22.308Z,3.97
2023-05-09T00:24:49.475Z,4.13
2023-05-09T00:27:16.556Z,4.10
2023-05-09T00:29:43.561Z,4.43
2023-05-09T00:32:10.900Z,3.90
2023-05-09T00:34:38.045Z,4.50
2023-05-09T00:37:04.634Z,4.20
2023-05-09T00:39:31.296Z,3.80
2023-05-09T00:41:57.998Z,4.20
2023-05-09T00:44:24.648Z,4.07
2023-05-09T00:46:51.375Z,4.13
2023-05-09T00:49:18.034Z,3.80
2023-05-09T00:51:44.646Z,3.47
2023-05-09T00:54:12.075Z,3.70
2023-05-09T00:56:39.300Z,3.93
2023-05-09T00:59:06.559Z,3.90
2023-05-09T01:01:33.282Z,3.30
2023-05-09T01:04:00.238Z,4.00
2023-05-09T01:06:52.107Z,3.60
2023-05-09T01:09:42.935Z,3.80
2023-05-09T01:12:29.400Z,3.37
2023-05-09T01:15:17.815Z,3.40
2023-05-09T01:17:51.903Z,3.40
2023-05-09T01:20:39.988Z,3.90
2023-05-09T01:23:13.273Z,4.20
2023-05-09T01:26:03.090Z,3.67
2023-05-09T01:29:17.843Z,3.30
2023-05-09T01:31:45.690Z,3.53
2023-05-09T01:34:15.488Z,3.50
2023-05-09T01:36:43.537Z,3.53
2023-05-09T01:39:14.124Z,3.40
2023-05-09T01:41:41.026Z,3.70
2023-05-09T01:44:11.555Z,3.07
2023-05-09T01:46:38.355Z,2.93
2023-05-09T01:49:07.476Z,3.20
2023-05-09T01:51:35.158Z,3.40
2023-05-09T01:54:01.997Z,3.70
2023-05-09T01:56:29.183Z,3.60
2023-05-09T01:58:56.589Z,3.50
2023-05-09T02:01:24.252Z,3.80
2023-05-09T02:03:54.733Z,3.23
2023-05-09T02:06:23.509Z,3.40
2023-05-09T02:08:51.053Z,3.73
2023-05-09T02:11:17.721Z,3.50
2023-05-09T02:13:44.399Z,3.47
2023-05-09T02:16:12.166Z,3.50
2023-05-09T02:18:38.975Z,3.23
2023-05-09T02:21:06.220Z,3.40
2023-05-09T02:23:32.916Z,3.60
2023-05-09T02:25:59.739Z,3.10
2023-05-09T02:28:27.573Z,3.83
2023-05-09T02:30:55.060Z,3.63
2023-05-09T02:33:22.300Z,3.53
2023-05-09T02:35:49.444Z,3.40
2023-05-09T02:38:16.125Z,3.70
2023-05-09T02:40:43.896Z,3.00
2023-05-09T02:43:10.791Z,3.30
2023-05-09T02:45:37.477Z,3.40
2023-05-09T02:48:06.852Z,3.20
2023-05-09T02:50:35.030Z,3.10
2023-05-09T02:53:01.759Z,3.80
2023-05-09T02:55:28.551Z,3.90
2023-05-09T02:58:09.349Z,3.40
2023-05-09T03:00:39.376Z,3.07
2023-05-09T03:03:06.732Z,3.60
2023-05-09T03:05:33.513Z,3.50
2023-05-09T03:08:00.145Z,3.27
2023-05-09T03:10:26.799Z,3.30
2023-05-09T03:12:53.503Z,3.67
2023-05-09T03:15:22.089Z,3.67
2023-05-09T03:17:49.064Z,4.03
2023-05-09T03:20:15.925Z,3.53
2023-05-09T03:22:42.676Z,3.57
2023-05-09T03:25:11.467Z,3.50
2023-05-09T03:27:38.715Z,3.50
2023-05-09T03:30:09.303Z,4.03
2023-05-09T03:32:36.005Z,3.97
2023-05-09T03:35:02.746Z,3.10
2023-05-09T03:37:29.999Z,4.20
2023-05-09T03:39:59.905Z,4.03
2023-05-09T03:42:27.278Z,3.60
2023-05-09T03:44:58.030Z,4.13
2023-05-09T03:47:24.700Z,3.77
2023-05-09T03:49:51.445Z,4.30
2023-05-09T03:52:21.018Z,3.83
2023-05-09T03:54:48.545Z,3.90
2023-05-09T03:57:17.574Z,4.20
2023-05-09T03:59:45.999Z,4.17
2023-05-09T04:02:13.665Z,3.93
2023-05-09T04:04:40.454Z,4.30
2023-05-09T04:07:08.063Z,3.60
2023-05-09T04:09:35.403Z,3.80
2023-05-09T04:12:04.403Z,4.13
2023-05-09T04:14:32.210Z,4.30
2023-05-09T04:16:59.173Z,3.80
2023-05-09T04:19:25.891Z,4.13
2023-05-09T04:21:52.603Z,5.03
2023-05-09T04:24:29.215Z,4.57
2023-05-09T04:26:55.877Z,4.87
2023-05-09T04:29:26.224Z,4.67
2023-05-09T04:31:59.401Z,4.50
2023-05-09T04:34:27.691Z,4.90
2023-05-09T04:36:55.774Z,4.93
2023-05-09T04:39:27.214Z,5.60
2023-05-09T04:42:02.696Z,5.10
2023-05-09T04:44:29.353Z,4.97
2023-05-09T04:46:59.279Z,5.10
2023-05-09T04:49:25.847Z,5.90
2023-05-09T04:51:52.580Z,5.90
2023-05-09T04:54:19.174Z,5.43
2023-05-09T04:56:47.405Z,5.50
2023-05-09T04:59:18.218Z,5.27
2023-05-09T05:01:47.378Z,5.20
2023-05-09T05:04:14.402Z,5.20
2023-05-09T05:06:50.070Z,5.43
2023-05-09T05:09:17.003Z,4.83
2023-05-09T05:11:57.110Z,4.90
2023-05-09T05:14:25.500Z,5.17
2023-05-09T05:16:52.666Z,5.00
2023-05-09T05:19:19.370Z,5.53
2023-05-09T05:21:49.109Z,5.07
2023-05-09T05:24:15.935Z,5.30
2023-05-09T05:26:43.323Z,4.87
2023-05-09T05:29:10.734Z,5.30
2023-05-09T05:31:37.510Z,5.30
2023-05-09T05:34:04.188Z,5.00
2023-05-09T05:36:32.362Z,5.43
2023-05-09T05:39:03.023Z,5.10
2023-05-09T05:41:38.903Z,5.10
2023-05-09T05:44:07.582Z,4.70
2023-05-09T05:46:35.048Z,5.27
2023-05-09T05:49:07.888Z,5.37
2023-05-09T05:51:34.874Z,4.90
2023-05-09T05:54:03.177Z,5.10
2023-05-09T05:56:34.614Z,4.83
2023-05-09T05:59:01.753Z,4.70
2023-05-09T06:01:31.532Z,5.00
2023-05-09T06:04:01.689Z,5.30
2023-05-09T06:06:31.273Z,4.90
2023-05-09T06:09:06.244Z,5.30
2023-05-09T06:11:32.909Z,5.20
2023-05-09T06:13:59.842Z,4.70
2023-05-09T06:16:30.412Z,5.83
2023-05-09T06:18:57.133Z,5.00
2023-05-09T06:21:23.817Z,5.17
2023-05-09T06:24:08.524Z,5.67
2023-05-09T06:26:42.892Z,5.13
2023-05-09T06:29:09.928Z,5.23
2023-05-09T06:31:39.175Z,5.47
2023-05-09T06:34:06.169Z,5.40
2023-05-09T06:36:33.570Z,5.40
2023-05-09T06:39:00.555Z,5.40
2023-05-09T06:41:27.517Z,5.50
2023-05-09T06:43:54.466Z,6.33
2023-05-09T06:46:32.973Z,6.33
2023-05-09T06:49:01.789Z,6.23
2023-05-09T06:51:28.960Z,6.00
2023-05-09T06:54:02.693Z,5.80
2023-05-09T06:56:32.396Z,5.43
2023-05-09T06:58:59.226Z,5.77
2023-05-09T07:01:26.052Z,5.93
2023-05-09T07:03:52.724Z,5.37
2023-05-09T07:06:22.133Z,5.70
2023-05-09T07:08:48.811Z,5.93
2023-05-09T07:11:16.297Z,5.70
2023-05-09T07:13:42.969Z,6.00
2023-05-09T07:16:09.696Z,6.40
2023-05-09T07:18:42.111Z,6.20
2023-05-09T07:21:09.087Z,5.80
2023-05-09T07:23:36.072Z,5.97
2023-05-09T07:26:02.854Z,6.07
2023-05-09T07:28:29.608Z,6.47
2023-05-09T07:30:58.738Z,6.57
2023-05-09T07:33:25.507Z,6.50
2023-05-09T07:35:53.093Z,5.60
2023-05-09T07:38:19.763Z,6.13
2023-05-09T07:40:46.415Z,6.20
2023-05-09T07:43:19.439Z,6.53
2023-05-09T07:45:47.145Z,6.40
2023-05-09T07:48:13.850Z,6.57
2023-05-09T07:50:46.765Z,6.90
2023-05-09T07:53:13.426Z,6.40
2023-05-09T07:55:44.888Z,7.10
2023-05-09T08:01:06.856Z,7.80
2023-05-09T08:03:33.703Z,7.20
2023-05-09T08:06:00.632Z,7.00
2023-05-09T08:08:39.091Z,6.90
2023-05-09T08:11:06.292Z,8.13
2023-05-09T08:13:33.052Z,7.77
2023-05-09T08:16:05.881Z,7.00
2023-05-09T08:18:32.660Z,7.50
2023-05-09T08:20:59.770Z,7.93
2023-05-09T08:23:37.411Z,7.27
2023-05-09T08:26:04.211Z,7.10
2023-05-09T08:28:30.873Z,8.47
2023-05-09T08:30:58.061Z,8.17
2023-05-09T08:33:33.715Z,7.80
2023-05-09T08:36:01.422Z,8.70
2023-05-09T08:38:28.715Z,9.40
2023-05-09T08:41:02.152Z,8.80
2023-05-09T08:43:29.814Z,8.50
2023-05-09T08:46:08.010Z,9.50
2023-05-09T08:48:37.677Z,9.50
2023-05-09T08:51:12.145Z,9.20
2023-05-09T08:53:42.091Z,10.10
2023-05-09T08:56:08.907Z,10.50
2023-05-09T08:58:35.873Z,9.93
2023-05-09T09:01:11.245Z,9.60
2023-05-09T09:03:39.538Z,9.70
2023-05-09T09:06:07.811Z,10.13
2023-05-09T09:08:45.195Z,9.80
2023-05-09T09:11:13.751Z,11.10
2023-05-09T09:13:43.556Z,10.10
2023-05-09T09:16:22.869Z,10.10
2023-05-09T09:19:20.364Z,10.60
2023-05-09T09:21:47.558Z,10.37
2023-05-09T09:24:14.837Z,9.83
2023-05-09T09:26:49.184Z,9.43
2023-05-09T09:29:17.491Z,9.93
2023-05-09T09:31:57.239Z,10.10
2023-05-09T09:34:24.059Z,10.17
2023-05-09T09:36:51.030Z,9.87
2023-05-09T09:39:27.892Z,9.77
2023-05-09T09:41:54.587Z,9.40
2023-05-09T09:44:23.592Z,9.80
2023-05-09T09:46:54.197Z,9.80
2023-05-09T09:49:26.918Z,9.90
2023-05-09T09:51:58.008Z,9.67
2023-05-09T09:54:28.255Z,9.97
2023-05-09T09:56:55.375Z,9.00
2023-05-09T09:59:26.730Z,9.80
2023-05-09T10:02:08.237Z,10.87
2023-05-09T10:04:41.508Z,10.00
2023-05-09T10:07:12.869Z,9.97
2023-05-09T10:09:51.057Z,10.60
2023-05-09T10:12:24.768Z,11.10
2023-05-09T10:15:01.946Z,11.00
2023-05-09T10:17:29.590Z,10.00
2023-05-09T10:19:56.915Z,11.50
2023-05-09T10:22:30.205Z,11.20
2023-05-09T10:25:15.725Z,11.17
2023-05-09T10:27:46.277Z,10.00
2023-05-09T10:30:17.447Z,9.90
2023-05-09T10:33:00.801Z,10.67
2023-05-09T10:35:36.696Z,10.30
2023-05-09T10:38:11.193Z,11.10
2023-05-09T10:40:40.616Z,10.87
2023-05-09T10:43:10.376Z,11.20
2023-05-09T10:45:46.474Z,12.93
2023-05-09T10:48:16.723Z,11.90
2023-05-09T10:50:43.837Z,11.30
2023-05-09T10:53:21.698Z,10.47
2023-05-09T10:56:07.132Z,10.50
2023-05-09T10:58:47.641Z,10.23
2023-05-09T11:01:14.547Z,9.60
2023-05-09T11:04:17.391Z,9.33
2023-05-09T11:06:55.152Z,9.30
2023-05-09T11:09:25.221Z,8.87
2023-05-09T11:12:09.623Z,9.60
2023-05-09T11:14:36.381Z,9.40
2023-05-09T11:17:21.681Z,9.37
2023-05-09T11:19:51.346Z,9.87
2023-05-09T11:22:21.905Z,9.93
2023-05-09T11:24:51.995Z,9.53
2023-05-09T11:27:23.076Z,10.93
2023-05-09T11:29:59.676Z,8.93
2023-05-09T11:32:34.326Z,9.53
2023-05-09T11:35:09.560Z,9.40
2023-05-09T11:38:05.211Z,8.93
2023-05-09T11:40:35.374Z,9.00
2023-05-09T11:43:09.689Z,7.77
2023-05-09T11:45:39.940Z,8.47
2023-05-09T11:48:10.453Z,8.73
2023-05-09T11:50:41.729Z,8.10
2023-05-09T11:53:12.501Z,7.97
2023-05-09T11:55:41.283Z,8.90
2023-05-09T11:58:08.083Z,7.70
2023-05-09T12:00:55.184Z,8.07
2023-05-09T12:03:22.019Z,8.37
2023-05-09T12:05:49.146Z,8.07
2023-05-09T12:08:23.546Z,8.10
2023-05-09T12:10:50.509Z,8.17
2023-05-09T12:13:18.176Z,8.00
2023-05-09T12:15:45.191Z,8.03
2023-05-09T12:18:12.004Z,8.67
2023-05-09T12:20:42.431Z,8.63
2023-05-09T12:23:11.369Z,7.90
2023-05-09T12:25:47.484Z,8.80
2023-05-09T12:28:14.262Z,8.50
2023-05-09T12:30:40.965Z,7.70
2023-05-09T12:33:12.492Z,7.43
2023-05-09T12:35:48.798Z,7.43
2023-05-09T12:38:25.441Z,7.63
2023-05-09T12:41:15.486Z,7.80
2023-05-09T12:43:59.979Z,8.10
2023-05-09T12:46:39.897Z,7.50
2023-05-09T12:49:06.589Z,7.90
2023-05-09T12:51:33.316Z,7.63
2023-05-09T12:54:17.386Z,7.83
2023-05-09T12:56:45.410Z,7.97
2023-05-09T12:59:14.997Z,6.90
2023-05-09T13:01:42.080Z,7.73
2023-05-09T13:04:10.534Z,7.03
2023-05-09T13:06:51.431Z,6.60
2023-05-09T13:09:18.929Z,6.57
2023-05-09T13:11:47.595Z,6.73
2023-05-09T13:14:15.270Z,6.60
2023-05-09T13:16:43.460Z,6.80
2023-05-09T13:19:10.941Z,6.67
2023-05-09T13:21:38.979Z,6.93
2023-05-09T13:24:06.338Z,6.60
2023-05-09T13:26:34.030Z,7.20
2023-05-09T13:29:00.901Z,7.00
2023-05-09T13:31:30.564Z,7.53
2023-05-09T13:34:04.884Z,7.67
2023-05-09T13:36:32.623Z,7.90
2023-05-09T13:38:59.370Z,7.37
2023-05-09T13:41:32.009Z,7.60
2023-05-09T13:43:59.956Z,7.60
2023-05-09T13:46:29.408Z,7.03
2023-05-09T13:49:04.629Z,7.90
2023-05-09T13:51:32.629Z,8.57
2023-05-09T13:54:02.454Z,7.60
2023-05-09T13:56:32.172Z,7.33
2023-05-09T13:59:08.065Z,7.87
2023-05-09T14:01:35.152Z,7.50
2023-05-09T14:04:02.488Z,7.07
2023-05-09T14:06:36.632Z,7.30
2023-05-09T14:09:04.562Z,7.30
2023-05-09T14:11:31.286Z,7.47
2023-05-09T14:14:09.154Z,7.90
2023-05-09T14:16:35.958Z,6.90
2023-05-09T14:19:02.714Z,7.60
2023-05-09T14:21:29.400Z,6.53
2023-05-09T14:24:03.911Z,6.83
2023-05-09T14:26:30.631Z,7.10
2023-05-09T14:28:59.812Z,7.70
2023-05-09T14:31:34.192Z,6.90
2023-05-09T14:34:01.027Z,6.27
2023-05-09T14:36:31.506Z,6.57
2023-05-09T14:39:01.324Z,6.73
2023-05-09T14:41:28.130Z,6.10
2023-05-09T14:44:02.146Z,6.20
2023-05-09T14:46:31.914Z,6.23
2023-05-09T14:49:04.020Z,6.40
2023-05-09T14:51:31.853Z,5.70
2023-05-09T14:54:02.557Z,7.10
2023-05-09T14:56:31.053Z,6.47
2023-05-09T14:59:00.625Z,6.63
2023-05-09T15:01:29.872Z,5.87
2023-05-09T15:04:06.091Z,5.83
2023-05-09T15:06:32.948Z,6.57
2023-05-09T15:09:02.719Z,5.90
2023-05-09T15:11:43.263Z,6.43
2023-05-09T15:14:14.032Z,6.70
2023-05-09T15:16:40.831Z,6.93
2023-05-09T15:19:08.401Z,6.90
2023-05-09T15:21:35.222Z,6.70
2023-05-09T15:24:02.521Z,6.90
2023-05-09T15:26:32.277Z,6.63
2023-05-09T15:29:02.303Z,6.33
2023-05-09T15:31:32.692Z,6.70
2023-05-09T15:34:05.622Z,6.60
2023-05-09T15:36:33.833Z,6.60
2023-05-09T15:39:05.136Z,7.00
2023-05-09T15:41:34.869Z,6.60
2023-05-09T15:44:01.493Z,6.50
2023-05-09T15:46:33.917Z,6.90
2023-05-09T15:49:08.222Z,7.10
2023-05-09T15:51:34.923Z,6.93
2023-05-09T15:54:01.641Z,7.00
2023-05-09T15:56:38.923Z,6.60
2023-05-09T15:59:05.705Z,7.37
2023-05-09T16:01:35.123Z,6.20
2023-05-09T16:04:02.286Z,7.30
2023-05-09T16:06:32.956Z,6.70
2023-05-09T16:08:59.703Z,6.80
2023-05-09T16:11:28.521Z,7.10
2023-05-09T16:13:58.347Z,7.30
2023-05-09T16:16:26.604Z,6.60
2023-05-09T16:18:53.471Z,7.10
2023-05-09T16:21:21.700Z,7.00
2023-05-09T16:23:58.480Z,7.00
2023-05-09T16:26:26.281Z,7.30
2023-05-09T16:28:53.199Z,6.80
2023-05-09T16:31:21.472Z,6.60
2023-05-09T16:33:48.857Z,6.53
2023-05-09T16:36:15.824Z,6.40
2023-05-09T16:38:42.497Z,5.83
2023-05-09T16:41:09.179Z,6.70
2023-05-09T16:43:35.978Z,6.20
2023-05-09T16:46:02.728Z,6.00
2023-05-09T16:48:35.438Z,5.87
2023-05-09T16:51:02.123Z,6.27
2023-05-09T16:53:29.181Z,6.40
2023-05-09T16:55:55.946Z,6.40
2023-05-09T16:58:23.244Z,6.10
2023-05-09T17:00:50.963Z,5.80
2023-05-09T17:03:17.858Z,6.00
2023-05-09T17:05:53.182Z,6.50
2023-05-09T17:08:22.480Z,5.97
2023-05-09T17:10:50.032Z,5.87
2023-05-09T17:13:17.564Z,5.93
2023-05-09T17:15:44.488Z,6.73
2023-05-09T17:18:17.042Z,6.33
2023-05-09T17:20:46.203Z,6.17
2023-05-09T17:23:13.200Z,7.00
2023-05-09T17:25:39.900Z,6.20
2023-05-09T17:28:08.698Z,6.17
2023-05-09T17:30:39.621Z,6.13
2023-05-09T17:33:06.386Z,6.50
2023-05-09T17:35:39.744Z,6.40
2023-05-09T17:38:06.493Z,6.23
2023-05-09T17:40:33.347Z,6.37
2023-05-09T17:43:03.154Z,6.60
2023-05-09T17:45:33.109Z,6.10
2023-05-09T17:48:01.608Z,6.00
2023-05-09T17:50:28.708Z,6.43
2023-05-09T17:52:58.064Z,6.53
2023-05-09T17:55:48.104Z,6.50
2023-05-09T17:58:17.172Z,6.40
2023-05-09T18:00:44.644Z,6.20
2023-05-09T18:03:13.633Z,6.23
2023-05-09T18:05:49.568Z,6.40
2023-05-09T18:08:16.869Z,6.20
2023-05-09T18:10:43.827Z,6.90
2023-05-09T18:13:19.053Z,5.83
2023-05-09T18:15:45.892Z,6.13
2023-05-09T18:18:16.008Z,5.70
2023-05-09T18:20:51.067Z,6.13
2023-05-09T18:23:34.123Z,5.83
2023-05-09T18:26:16.735Z,6.33
2023-05-09T18:31:49.281Z,5.90
2023-05-09T18:34:18.752Z,6.43
2023-05-09T18:36:59.959Z,6.13
2023-05-09T18:39:55.561Z,6.70
2023-05-09T18:42:43.904Z,7.80
2023-05-09T18:45:11.561Z,8.23
2023-05-09T18:47:46.069Z,8.00
2023-05-09T18:53:36.295Z,9.00
2023-05-09T18:56:06.103Z,7.90
2023-05-09T18:58:36.793Z,8.07
2023-05-09T19:01:11.651Z,7.50
2023-05-09T19:03:53.088Z,7.23
2023-05-09T19:06:20.283Z,7.70
2023-05-09T19:08:47.792Z,7.60
2023-05-09T19:11:22.545Z,8.57
2023-05-09T19:13:49.736Z,8.80
2023-05-09T19:16:18.784Z,8.57
2023-05-09T19:18:51.645Z,9.33
2023-05-09T19:21:18.886Z,10.37
2023-05-09T19:23:49.098Z,9.90
2023-05-09T19:29:08.546Z,10.40
2023-05-09T19:31:37.120Z,9.77
2023-05-09T19:34:03.925Z,9.37
2023-05-09T19:36:31.056Z,9.77
2023-05-09T19:39:08.709Z,9.73
2023-05-09T19:41:35.616Z,10.63
2023-05-09T19:44:04.377Z,10.60
2023-05-09T19:46:33.811Z,10.33
2023-05-09T19:49:00.932Z,10.77
2023-05-09T19:51:28.045Z,9.93
2023-05-09T19:53:54.752Z,10.27
2023-05-09T19:56:31.298Z,9.30
2023-05-09T19:58:57.983Z,8.97
2023-05-09T20:01:31.449Z,10.80
2023-05-09T20:04:00.778Z,11.20
2023-05-09T20:06:27.650Z,11.37
2023-05-09T20:08:55.783Z,11.47
2023-05-09T20:11:26.687Z,11.40
2023-05-09T20:13:53.606Z,9.63
2023-05-09T20:16:21.302Z,9.13
2023-05-09T20:18:50.711Z,9.83
2023-05-09T20:21:18.872Z,10.40
2023-05-09T20:23:46.109Z,10.60
2023-05-09T20:26:13.068Z,10.70
2023-05-09T20:28:39.792Z,10.60
2023-05-09T20:31:06.620Z,10.20
2023-05-09T20:33:33.443Z,9.83
2023-05-09T20:36:09.595Z,8.90
2023-05-09T20:38:36.452Z,9.10
2023-05-09T20:41:04.078Z,9.40
2023-05-09T20:43:38.462Z,9.40
2023-05-09T20:46:05.427Z,8.97
2023-05-09T20:48:32.492Z,9.87
2023-05-09T20:50:59.181Z,10.27
2023-05-09T20:53:27.683Z,9.87
2023-05-09T20:55:54.508Z,10.50
2023-05-09T20:58:21.309Z,11.07
2023-05-09T21:00:48.525Z,10.20
2023-05-09T21:03:15.547Z,10.20
2023-05-09T21:05:42.367Z,10.47
2023-05-09T21:08:09.058Z,10.87
2023-05-09T21:10:38.480Z,10.20
2023-05-09T21:13:05.172Z,10.67
2023-05-09T21:15:31.976Z,10.00
2023-05-09T21:17:58.830Z,10.00
2023-05-09T21:20:30.975Z,10.03
2023-05-09T21:22:57.637Z,9.20
2023-05-09T21:25:24.449Z,9.50
2023-05-09T21:27:51.093Z,8.87
2023-05-09T21:30:18.022Z,8.70
2023-05-09T21:32:45.044Z,8.93
2023-05-09T21:35:15.459Z,7.87
2023-05-09T21:37:42.584Z,7.80
2023-05-09T21:40:10.255Z,7.80
2023-05-09T21:42:37.733Z,6.87
2023-05-09T21:45:13.043Z,6.60
2023-05-09T21:47:40.267Z,5.90
2023-05-09T21:50:07.379Z,6.13
2023-05-09T21:52:36.465Z,6.90
2023-05-09T21:55:03.444Z,6.17
2023-05-09T21:57:30.099Z,6.67
2023-05-09T22:00:07.906Z,5.80
2023-05-09T22:02:41.016Z,5.23
2023-05-09T22:05:08.163Z,5.10
2023-05-09T22:07:38.442Z,4.47
2023-05-09T22:10:05.947Z,5.10
2023-05-09T22:12:33.639Z,3.93
2023-05-09T22:15:00.297Z,4.50
2023-05-09T22:17:27.104Z,4.67
2023-05-09T22:19:59.238Z,4.57
2023-05-09T22:22:27.045Z,4.40
2023-05-09T22:24:53.821Z,5.03
2023-05-09T22:27:32.241Z,4.67
2023-05-09T22:29:59.065Z,4.60
2023-05-09T22:32:25.779Z,5.07
2023-05-09T22:35:03.245Z,4.53
2023-05-09T22:37:29.889Z,4.63
2023-05-09T22:39:56.614Z,5.37
2023-05-09T22:42:23.268Z,5.00
2023-05-09T22:44:50.029Z,5.57
2023-05-09T22:47:21.994Z,5.30
2023-05-09T22:49:49.858Z,5.20
2023-05-09T22:52:17.123Z,5.20
2023-05-09T22:54:53.708Z,5.57
2023-05-09T22:57:20.607Z,5.70
2023-05-09T22:59:49.708Z,5.23
2023-05-09T23:02:22.258Z,5.10
2023-05-09T23:04:51.268Z,5.80
2023-05-09T23:07:18.001Z,5.43
2023-05-09T23:09:49.582Z,5.70
2023-05-09T23:12:18.509Z,5.20
2023-05-09T23:14:45.241Z,5.57
2023-05-09T23:17:12.014Z,5.37
2023-05-09T23:19:38.676Z,5.20
2023-05-09T23:22:08.085Z,5.80
2023-05-09T23:24:35.565Z,5.30
2023-05-09T23:27:05.468Z,5.47
2023-05-09T23:29:33.287Z,5.23
2023-05-09T23:31:59.965Z,5.90
2023-05-09T23:34:26.723Z,5.30
2023-05-09T23:36:53.723Z,6.10
2023-05-09T23:39:20.633Z,5.87
2023-05-09T23:41:47.285Z,5.97
2023-05-09T23:44:13.832Z,6.07
2023-05-09T23:46:46.041Z,5.87
2023-05-09T23:49:14.583Z,6.00
2023-05-09T23:51:41.338Z,6.53
2023-05-09T23:54:08.367Z,6.33
2023-05-09T23:56:36.498Z,7.37
2023-05-09T23:59:11.497Z,7.00
